Terminal Aerodrome Forecast
Issued by NWS Shreveport, LA

Home | Current Version | Previous Version | Text Only | Print | Product List | Glossary On
Versions: 1 2 3 4 5 6 7 8 9 10 11 12 13 14 15 16 17 18 19
000
FTUS44 KSHV 281700
TAFELD
TAF
KELD 281725Z 2818/0118 06008KT P6SM OVC100
     FM010000 04005KT P6SM OVC070
     FM010700 03004KT P6SM SCT020 OVC040
     FM011300 03004KT 5SM -RA BR OVC015=

USA.gov is the U.S. government's official web portal to all federal, state and local government web resources and services.